createdAt,value
2019-02-20T00:00:46.230Z,0
2019-02-20T00:01:46.224Z,0
2019-02-20T00:02:46.226Z,0
2019-02-20T00:03:46.226Z,0
2019-02-20T00:04:46.229Z,0
2019-02-20T00:05:46.166Z,0
2019-02-20T00:06:46.176Z,0
2019-02-20T00:07:46.404Z,0
2019-02-20T00:08:46.130Z,0
2019-02-20T00:09:46.128Z,0
2019-02-20T00:10:46.129Z,0
2019-02-20T00:11:45.876Z,0
2019-02-20T00:12:46.118Z,0
2019-02-20T00:13:46.107Z,0
2019-02-20T00:14:46.052Z,0
2019-02-20T00:15:45.802Z,0
2019-02-20T00:16:46.025Z,0
2019-02-20T00:17:46.032Z,0
2019-02-20T00:18:46.003Z,0
2019-02-20T00:19:46.062Z,0
2019-02-20T00:20:45.984Z,0
2019-02-20T00:21:45.971Z,0
2019-02-20T00:22:49.888Z,0
2019-02-20T00:23:45.944Z,0
2019-02-20T00:24:45.950Z,0
2019-02-20T00:25:45.917Z,0
2019-02-20T00:26:45.663Z,0
2019-02-20T00:27:45.884Z,0
2019-02-20T00:28:45.921Z,0
2019-02-20T00:29:45.876Z,0
2019-02-20T00:30:45.865Z,0
2019-02-20T00:31:45.883Z,0
2019-02-20T00:32:45.847Z,0
2019-02-20T00:33:45.846Z,0
2019-02-20T00:34:45.832Z,0
2019-02-20T00:35:45.791Z,0
2019-02-20T00:36:45.815Z,0
2019-02-20T00:37:45.770Z,0
2019-02-20T00:38:46.011Z,0
2019-02-20T00:39:45.763Z,0
2019-02-20T00:40:45.512Z,0
2019-02-20T00:41:45.717Z,0
2019-02-20T00:42:45.723Z,0
2019-02-20T00:43:45.705Z,0
2019-02-20T00:44:45.679Z,0
2019-02-20T00:45:45.669Z,0
2019-02-20T00:46:45.423Z,0
2019-02-20T00:47:45.646Z,0
2019-02-20T00:48:45.631Z,0
2019-02-20T00:49:45.629Z,0
2019-02-20T00:50:45.637Z,0
2019-02-20T00:51:45.594Z,0
2019-02-20T00:52:54.305Z,0
2019-02-20T00:53:45.602Z,0
2019-02-20T00:54:45.583Z,0
2019-02-20T00:55:45.545Z,0
2019-02-20T00:56:45.547Z,0
2019-02-20T00:57:45.528Z,0
2019-02-20T00:58:45.537Z,0
2019-02-20T00:59:45.527Z,0
2019-02-20T01:00:45.515Z,0
2019-02-20T01:01:45.488Z,0
2019-02-20T01:03:45.453Z,0
2019-02-20T01:04:45.201Z,0
2019-02-20T01:05:45.438Z,0
2019-02-20T01:06:47.718Z,0
2019-02-20T01:07:45.420Z,0
2019-02-20T01:08:45.397Z,0
2019-02-20T01:09:45.627Z,0
2019-02-20T01:10:45.370Z,0
2019-02-20T01:11:45.372Z,0
2019-02-20T01:12:45.341Z,0
2019-02-20T01:13:45.325Z,0
2019-02-20T01:14:45.321Z,0
2019-02-20T01:15:45.317Z,0
2019-02-20T01:16:45.297Z,0
2019-02-20T01:17:45.284Z,0
2019-02-20T01:18:45.274Z,0
2019-02-20T01:19:45.251Z,0
2019-02-20T01:20:45.245Z,0
2019-02-20T01:21:45.240Z,0
2019-02-20T01:22:45.224Z,0
2019-02-20T01:23:45.205Z,0
2019-02-20T01:24:45.189Z,0
2019-02-20T01:25:45.182Z,0
2019-02-20T01:26:45.180Z,0
2019-02-20T01:27:45.381Z,0
2019-02-20T01:28:45.190Z,0
2019-02-20T01:29:45.151Z,0
2019-02-20T01:30:45.143Z,0
2019-02-20T01:31:45.149Z,0
2019-02-20T01:32:45.097Z,0
2019-02-20T01:33:45.081Z,0
2019-02-20T01:34:45.071Z,0
2019-02-20T01:35:45.089Z,0
2019-02-20T01:36:45.040Z,0
2019-02-20T01:37:45.038Z,0
2019-02-20T01:38:45.039Z,0
2019-02-20T01:39:45.004Z,0
2019-02-20T01:40:45.008Z,0
2019-02-20T01:41:45.287Z,0
2019-02-20T01:42:45.022Z,0
2019-02-20T01:43:44.957Z,0
2019-02-20T01:44:44.942Z,0
2019-02-20T01:45:44.937Z,0
2019-02-20T01:46:44.929Z,0
2019-02-20T01:47:44.930Z,0
2019-02-20T01:48:44.893Z,0
2019-02-20T01:49:44.890Z,0
2019-02-20T01:50:44.869Z,0
2019-02-20T01:51:45.103Z,0
2019-02-20T01:52:44.853Z,0
2019-02-20T01:53:44.833Z,0
2019-02-20T01:54:44.817Z,0
2019-02-20T01:55:44.832Z,0
2019-02-20T01:56:44.797Z,0
2019-02-20T01:57:44.794Z,0
2019-02-20T01:58:44.784Z,0
2019-02-20T01:59:44.770Z,0
2019-02-20T02:00:44.753Z,0
2019-02-20T02:01:44.772Z,0
2019-02-20T02:02:44.731Z,0
2019-02-20T02:03:46.267Z,0
2019-02-20T02:04:44.698Z,0
2019-02-20T02:05:44.704Z,0
2019-02-20T02:06:44.692Z,0
2019-02-20T02:07:44.688Z,0
2019-02-20T02:08:44.647Z,0
2019-02-20T02:09:44.643Z,0
2019-02-20T02:10:44.625Z,0
2019-02-20T02:11:44.611Z,0
2019-02-20T02:12:44.852Z,0
2019-02-20T02:13:44.592Z,0
2019-02-20T02:14:44.571Z,0
2019-02-20T02:15:44.315Z,0
2019-02-20T02:16:44.545Z,0
2019-02-20T02:17:44.537Z,0
2019-02-20T02:18:44.522Z,0
2019-02-20T02:19:44.506Z,0
2019-02-20T02:20:44.499Z,0
2019-02-20T02:21:44.484Z,0
2019-02-20T02:22:44.482Z,0
2019-02-20T02:23:44.464Z,0
2019-02-20T02:24:44.448Z,0
2019-02-20T02:25:44.451Z,0
2019-02-20T02:26:44.444Z,0
2019-02-20T02:27:44.424Z,0
2019-02-20T02:28:44.402Z,0
2019-02-20T02:29:44.419Z,0
2019-02-20T02:30:44.399Z,0
2019-02-20T02:31:44.369Z,0
2019-02-20T02:32:44.348Z,0
2019-02-20T02:33:44.332Z,0
2019-02-20T02:34:44.328Z,0
2019-02-20T02:35:44.307Z,0
2019-02-20T02:36:44.309Z,0
2019-02-20T02:37:44.285Z,0
2019-02-20T02:38:44.325Z,0
2019-02-20T02:39:44.258Z,0
2019-02-20T02:40:44.245Z,0
2019-02-20T02:41:44.898Z,0
2019-02-20T02:42:44.247Z,0
2019-02-20T02:43:44.458Z,0
2019-02-20T02:44:44.218Z,0
2019-02-20T02:45:44.186Z,0
2019-02-20T02:46:44.176Z,0
2019-02-20T02:47:44.173Z,0
2019-02-20T02:48:44.150Z,0
2019-02-20T02:49:44.145Z,0
2019-02-20T02:50:44.131Z,0
2019-02-20T02:51:44.128Z,0
2019-02-20T02:52:44.092Z,0
2019-02-20T02:53:44.117Z,0
2019-02-20T02:54:44.092Z,0
2019-02-20T02:55:44.062Z,0
2019-02-20T02:56:44.050Z,0
2019-02-20T02:57:44.034Z,0
2019-02-20T02:58:44.012Z,0
2019-02-20T02:59:44.008Z,0
2019-02-20T03:00:44.032Z,0
2019-02-20T03:01:44.049Z,0
2019-02-20T03:02:43.987Z,0
2019-02-20T03:03:43.975Z,0
2019-02-20T03:04:43.941Z,0
2019-02-20T03:05:43.928Z,0
2019-02-20T03:06:43.942Z,0
2019-02-20T03:07:43.902Z,0
2019-02-20T03:08:43.896Z,0
2019-02-20T03:09:43.899Z,0
2019-02-20T03:10:44.007Z,0
2019-02-20T03:11:43.905Z,0
2019-02-20T03:12:43.846Z,0
2019-02-20T03:13:43.822Z,0
2019-02-20T03:14:44.069Z,0
2019-02-20T03:15:43.842Z,0
2019-02-20T03:16:43.794Z,0
2019-02-20T03:17:43.795Z,0
2019-02-20T03:18:43.775Z,0
2019-02-20T03:19:43.761Z,0
2019-02-20T03:20:43.727Z,0
2019-02-20T03:21:43.727Z,0
2019-02-20T03:22:43.721Z,0
2019-02-20T03:23:49.850Z,0
2019-02-20T03:24:43.711Z,0
2019-02-20T03:25:43.676Z,0
2019-02-20T03:26:43.428Z,0
2019-02-20T03:27:43.646Z,0
2019-02-20T03:28:44.997Z,0
2019-02-20T03:29:43.619Z,0
2019-02-20T03:30:43.785Z,0
2019-02-20T03:31:43.638Z,0
2019-02-20T03:32:43.680Z,0
2019-02-20T03:33:43.589Z,0
2019-02-20T03:34:43.552Z,0
2019-02-20T03:35:43.550Z,0
2019-02-20T03:36:43.742Z,0
2019-02-20T03:37:43.513Z,0
2019-02-20T03:38:43.521Z,0
2019-02-20T03:39:43.490Z,0
2019-02-20T03:40:43.520Z,0
2019-02-20T03:41:43.538Z,0
2019-02-20T03:42:43.481Z,0
2019-02-20T03:43:43.456Z,0
2019-02-20T03:44:43.460Z,0
2019-02-20T03:45:43.660Z,0
2019-02-20T03:46:43.414Z,0
2019-02-20T03:47:43.388Z,0
2019-02-20T03:48:43.455Z,0
2019-02-20T03:49:43.367Z,0
2019-02-20T03:50:43.338Z,0
2019-02-20T03:51:43.368Z,0
2019-02-20T03:52:43.326Z,0
2019-02-20T03:53:53.586Z,0
2019-02-20T03:54:43.288Z,0
2019-02-20T03:55:43.317Z,0
2019-02-20T03:56:43.275Z,0
2019-02-20T03:57:43.327Z,0
2019-02-20T03:58:43.257Z,0
2019-02-20T03:59:43.262Z,0
2019-02-20T04:00:43.225Z,0
2019-02-20T04:01:43.216Z,0
2019-02-20T04:02:43.183Z,0
2019-02-20T04:03:42.933Z,0
2019-02-20T04:04:43.158Z,0
2019-02-20T04:05:43.135Z,0
2019-02-20T04:06:43.130Z,0
2019-02-20T04:07:43.108Z,0
2019-02-20T04:08:43.123Z,0
2019-02-20T04:09:43.079Z,0
2019-02-20T04:10:43.076Z,0
2019-02-20T04:11:43.054Z,0
2019-02-20T04:12:43.055Z,0
2019-02-20T04:13:43.029Z,0
2019-02-20T04:14:43.048Z,0
2019-02-20T04:15:43.023Z,0
2019-02-20T04:16:42.997Z,0
2019-02-20T04:17:43.233Z,0
2019-02-20T04:18:42.975Z,0
2019-02-20T04:19:42.954Z,0
2019-02-20T04:20:42.933Z,0
2019-02-20T04:21:42.931Z,0
2019-02-20T04:22:42.900Z,0
2019-02-20T04:23:42.969Z,0
2019-02-20T04:24:42.880Z,0
2019-02-20T04:25:42.856Z,0
2019-02-20T04:26:42.659Z,0
2019-02-20T04:27:42.830Z,0
2019-02-20T04:28:42.824Z,0
2019-02-20T04:29:42.801Z,0
2019-02-20T04:30:42.836Z,0
2019-02-20T04:31:42.796Z,0
2019-02-20T04:32:42.765Z,0
2019-02-20T04:33:42.767Z,0
2019-02-20T04:34:42.750Z,0
2019-02-20T04:35:42.722Z,0
2019-02-20T04:36:42.706Z,0
2019-02-20T04:37:42.696Z,0
2019-02-20T04:38:42.677Z,0
2019-02-20T04:39:42.435Z,0
2019-02-20T04:40:42.420Z,0
2019-02-20T04:41:42.628Z,0
2019-02-20T04:42:42.624Z,0
2019-02-20T04:43:42.610Z,0
2019-02-20T04:44:42.604Z,0
2019-02-20T04:45:42.589Z,0
2019-02-20T04:46:42.587Z,0
2019-02-20T04:47:42.558Z,0
2019-02-20T04:48:42.786Z,0
2019-02-20T04:49:42.519Z,0
2019-02-20T04:50:42.502Z,0
2019-02-20T04:51:42.506Z,0
2019-02-20T04:52:42.494Z,0
2019-02-20T04:53:42.496Z,0
2019-02-20T04:54:42.453Z,0
2019-02-20T04:55:42.190Z,0
2019-02-20T04:56:42.420Z,0
2019-02-20T04:57:42.421Z,0
2019-02-20T04:58:42.394Z,0
2019-02-20T04:59:42.389Z,0
2019-02-20T05:00:42.410Z,0
2019-02-20T05:01:42.360Z,0
2019-02-20T05:02:42.454Z,0
2019-02-20T05:03:42.327Z,0
2019-02-20T05:04:42.321Z,0
2019-02-20T05:05:42.322Z,0
2019-02-20T05:06:42.281Z,0
2019-02-20T05:07:42.273Z,0
2019-02-20T05:08:42.269Z,0
2019-02-20T05:09:44.494Z,0
2019-02-20T05:10:42.240Z,0
2019-02-20T05:11:42.239Z,0
2019-02-20T05:12:42.206Z,0
2019-02-20T05:13:42.206Z,0
2019-02-20T05:14:42.191Z,0
2019-02-20T05:15:42.187Z,0
2019-02-20T05:16:42.176Z,0
2019-02-20T05:17:42.156Z,0
2019-02-20T05:18:42.175Z,0
2019-02-20T05:19:42.133Z,0
2019-02-20T05:20:42.097Z,0
2019-02-20T05:21:42.096Z,0
2019-02-20T05:22:42.068Z,0
2019-02-20T05:23:42.802Z,0
2019-02-20T05:24:42.049Z,0
2019-02-20T05:25:42.044Z,0
2019-02-20T05:26:42.025Z,0
2019-02-20T05:27:42.018Z,0
2019-02-20T05:28:41.992Z,0
2019-02-20T05:29:41.981Z,0
2019-02-20T05:30:41.971Z,0
2019-02-20T05:31:41.954Z,0
2019-02-20T05:32:41.945Z,0
2019-02-20T05:33:41.682Z,0
2019-02-20T05:34:41.931Z,0
2019-02-20T05:35:41.922Z,0
2019-02-20T05:36:41.919Z,0
2019-02-20T05:37:42.152Z,0
2019-02-20T05:38:41.860Z,0
2019-02-20T05:39:41.860Z,0
2019-02-20T05:40:41.841Z,0
2019-02-20T05:41:41.821Z,0
2019-02-20T05:42:41.853Z,0
2019-02-20T05:43:41.803Z,0
2019-02-20T05:44:41.787Z,0
2019-02-20T05:45:41.770Z,0
2019-02-20T05:46:41.523Z,0
2019-02-20T05:47:41.752Z,0
2019-02-20T05:48:41.842Z,0
2019-02-20T05:49:41.728Z,0
2019-02-20T05:50:41.992Z,0
2019-02-20T05:51:41.699Z,0
2019-02-20T05:52:41.684Z,0
2019-02-20T05:53:41.697Z,0
2019-02-20T05:54:44.543Z,0
2019-02-20T05:55:41.688Z,0
2019-02-20T05:56:41.648Z,0
2019-02-20T05:57:43.600Z,0
2019-02-20T05:58:41.632Z,0
2019-02-20T05:59:41.609Z,0
2019-02-20T06:00:41.682Z,0
2019-02-20T06:01:41.330Z,0
2019-02-20T06:02:41.584Z,0
2019-02-20T06:03:41.562Z,0
2019-02-20T06:04:41.538Z,0
2019-02-20T06:05:41.556Z,5
2019-02-20T06:06:41.527Z,5
2019-02-20T06:07:41.518Z,5
2019-02-20T06:08:41.489Z,5
2019-02-20T06:09:41.471Z,5
2019-02-20T06:10:41.468Z,5
2019-02-20T06:11:41.463Z,5
2019-02-20T06:12:41.454Z,5
2019-02-20T06:13:41.207Z,10
2019-02-20T06:14:41.424Z,10
2019-02-20T06:15:43.023Z,10
2019-02-20T06:16:41.388Z,10
2019-02-20T06:17:41.404Z,10
2019-02-20T06:18:41.419Z,10
2019-02-20T06:19:41.360Z,15
2019-02-20T06:20:41.406Z,15
2019-02-20T06:21:41.576Z,15
2019-02-20T06:22:41.305Z,15
2019-02-20T06:23:41.383Z,15
2019-02-20T06:24:50.996Z,15
2019-02-20T06:25:41.316Z,20
2019-02-20T06:26:41.281Z,20
2019-02-20T06:27:41.253Z,20
2019-02-20T06:28:41.341Z,25
2019-02-20T06:29:41.229Z,25
2019-02-20T06:30:41.207Z,30
2019-02-20T06:31:40.958Z,30
2019-02-20T06:32:41.265Z,35
2019-02-20T06:33:41.176Z,40
2019-02-20T06:34:41.160Z,40
2019-02-20T06:35:41.161Z,45
2019-02-20T06:36:40.893Z,45
2019-02-20T06:37:41.144Z,50
2019-02-20T06:38:41.306Z,55
2019-02-20T06:39:41.114Z,60
2019-02-20T06:40:41.185Z,70
2019-02-20T06:41:48.509Z,75
2019-02-20T06:42:41.119Z,80
2019-02-20T06:43:41.049Z,85
2019-02-20T06:44:41.039Z,95
2019-02-20T06:45:41.061Z,95
2019-02-20T06:46:41.024Z,100
2019-02-20T06:47:41.009Z,105
2019-02-20T06:48:41.017Z,115
2019-02-20T06:49:40.983Z,115
2019-02-20T06:50:40.993Z,125
2019-02-20T06:51:40.968Z,135
2019-02-20T06:52:40.954Z,140
2019-02-20T06:53:41.189Z,145
2019-02-20T06:54:40.925Z,155
2019-02-20T06:55:40.912Z,165
2019-02-20T06:56:40.907Z,160
2019-02-20T06:57:40.885Z,160
2019-02-20T06:58:40.874Z,165
2019-02-20T06:59:40.902Z,155
2019-02-20T07:00:40.852Z,150
2019-02-20T07:01:40.841Z,170
2019-02-20T07:02:42.852Z,170
2019-02-20T07:03:40.821Z,155
2019-02-20T07:04:40.825Z,155
2019-02-20T07:05:40.798Z,160
2019-02-20T07:06:40.795Z,165
2019-02-20T07:07:40.775Z,200
2019-02-20T07:08:40.790Z,185
2019-02-20T07:09:40.768Z,175
2019-02-20T07:10:40.761Z,175
2019-02-20T07:11:40.528Z,170
2019-02-20T07:12:40.729Z,165
2019-02-20T07:13:40.713Z,155
2019-02-20T07:14:40.465Z,155
2019-02-20T07:15:40.708Z,155
2019-02-20T07:16:40.678Z,150
2019-02-20T07:17:40.671Z,140
2019-02-20T07:18:40.675Z,135
2019-02-20T07:19:40.651Z,135
2019-02-20T07:20:40.639Z,140
2019-02-20T07:21:40.631Z,135
2019-02-20T07:22:40.627Z,135
2019-02-20T07:23:40.617Z,140
2019-02-20T07:24:40.855Z,135
2019-02-20T07:25:40.661Z,130
2019-02-20T07:26:40.375Z,130
2019-02-20T07:27:40.567Z,135
2019-02-20T07:28:40.584Z,140
2019-02-20T07:29:40.559Z,140
2019-02-20T07:30:40.545Z,145
2019-02-20T07:31:40.534Z,145
2019-02-20T07:32:40.560Z,150
2019-02-20T07:33:40.607Z,150
2019-02-20T07:34:40.831Z,155
2019-02-20T07:35:40.545Z,160
2019-02-20T07:36:40.524Z,160
2019-02-20T07:37:40.507Z,170
2019-02-20T07:38:40.469Z,175
2019-02-20T07:39:40.454Z,180
2019-02-20T07:40:40.449Z,180
2019-02-20T07:41:40.436Z,180
2019-02-20T07:42:40.424Z,180
2019-02-20T07:43:40.406Z,175
2019-02-20T07:44:40.409Z,175
2019-02-20T07:45:40.396Z,185
2019-02-20T07:46:40.385Z,190
2019-02-20T07:47:40.375Z,190
2019-02-20T07:48:40.363Z,185
2019-02-20T07:49:40.368Z,180
2019-02-20T07:50:40.351Z,175
2019-02-20T07:51:40.352Z,175
2019-02-20T07:52:40.326Z,170
2019-02-20T07:53:40.325Z,170
2019-02-20T07:54:40.347Z,175
2019-02-20T07:55:40.307Z,180
2019-02-20T07:56:40.295Z,180
2019-02-20T07:57:40.273Z,190
2019-02-20T07:58:40.368Z,195
2019-02-20T07:59:40.258Z,205
2019-02-20T08:00:40.382Z,220
2019-02-20T08:01:40.303Z,225
2019-02-20T08:02:40.239Z,240
2019-02-20T08:03:40.230Z,245
2019-02-20T08:04:40.212Z,250
2019-02-20T08:05:40.246Z,255
2019-02-20T08:06:40.232Z,260
2019-02-20T08:07:40.192Z,265
2019-02-20T08:08:40.187Z,265
2019-02-20T08:09:40.161Z,270
2019-02-20T08:10:40.147Z,275
2019-02-20T08:11:40.142Z,280
2019-02-20T08:12:40.138Z,285
2019-02-20T08:13:48.722Z,285
2019-02-20T08:14:40.137Z,290
2019-02-20T08:15:40.100Z,280
2019-02-20T08:16:40.089Z,280
2019-02-20T08:17:40.083Z,270
2019-02-20T08:18:40.082Z,270
2019-02-20T08:19:40.103Z,270
2019-02-20T08:20:40.083Z,270
2019-02-20T08:21:40.046Z,275
2019-02-20T08:22:40.035Z,280
2019-02-20T08:23:40.037Z,280
2019-02-20T08:24:40.017Z,275
2019-02-20T08:25:40.014Z,270
2019-02-20T08:26:40.282Z,265
2019-02-20T08:27:40.049Z,260
2019-02-20T08:28:39.750Z,255
2019-02-20T08:29:39.984Z,255
2019-02-20T08:30:39.975Z,255
2019-02-20T08:31:39.719Z,250
2019-02-20T08:32:39.974Z,245
2019-02-20T08:33:39.945Z,240
2019-02-20T08:34:39.949Z,225
2019-02-20T08:35:39.948Z,215
2019-02-20T08:36:39.920Z,200
2019-02-20T08:37:39.907Z,195
2019-02-20T08:38:39.902Z,200
2019-02-20T08:39:39.899Z,215
2019-02-20T08:40:39.946Z,230
2019-02-20T08:41:39.880Z,250
2019-02-20T08:42:40.635Z,260
2019-02-20T08:43:39.967Z,275
2019-02-20T08:44:39.871Z,300
2019-02-20T08:45:39.845Z,325
2019-02-20T08:46:39.845Z,340
2019-02-20T08:47:39.830Z,345
2019-02-20T08:48:39.876Z,340
2019-02-20T08:49:39.833Z,330
2019-02-20T08:50:39.787Z,330
2019-02-20T08:51:39.789Z,325
2019-02-20T08:52:39.796Z,325
2019-02-20T08:53:39.533Z,330
2019-02-20T08:54:39.780Z,340
2019-02-20T08:55:41.861Z,350
2019-02-20T08:56:39.845Z,355
2019-02-20T08:57:39.994Z,345
2019-02-20T08:58:39.715Z,340
2019-02-20T08:59:39.713Z,330
2019-02-20T09:00:39.732Z,315
2019-02-20T09:01:39.734Z,320
2019-02-20T09:02:39.731Z,330
2019-02-20T09:03:39.749Z,340
2019-02-20T09:04:39.718Z,345
2019-02-20T09:05:41.370Z,350
2019-02-20T09:06:39.657Z,345
2019-02-20T09:07:39.645Z,340
2019-02-20T09:08:39.696Z,345
2019-02-20T09:09:39.648Z,345
2019-02-20T09:10:39.616Z,335
2019-02-20T09:11:39.615Z,325
2019-02-20T09:12:39.363Z,325
2019-02-20T09:13:39.615Z,325
2019-02-20T09:14:39.594Z,330
2019-02-20T09:15:39.579Z,335
2019-02-20T09:16:39.642Z,345
2019-02-20T09:17:40.735Z,350
2019-02-20T09:18:39.574Z,355
2019-02-20T09:19:39.549Z,355
2019-02-20T09:20:39.543Z,355
2019-02-20T09:21:39.547Z,345
2019-02-20T09:22:39.729Z,325
2019-02-20T09:23:39.531Z,310
2019-02-20T09:24:39.510Z,310
2019-02-20T09:25:48.352Z,305
2019-02-20T09:26:39.510Z,295
2019-02-20T09:27:39.501Z,290
2019-02-20T09:28:39.599Z,285
2019-02-20T09:29:39.728Z,280
2019-02-20T09:30:39.869Z,280
2019-02-20T09:31:39.455Z,300
2019-02-20T09:32:39.463Z,320
2019-02-20T09:33:39.458Z,325
2019-02-20T09:34:39.456Z,315
2019-02-20T09:35:39.432Z,310
2019-02-20T09:36:39.435Z,315
2019-02-20T09:37:39.411Z,320
2019-02-20T09:38:39.408Z,335
2019-02-20T09:39:39.709Z,335
2019-02-20T09:40:41.315Z,335
2019-02-20T09:41:39.388Z,345
2019-02-20T09:42:39.375Z,360
2019-02-20T09:43:39.368Z,360
2019-02-20T09:44:39.369Z,355
2019-02-20T09:45:49.349Z,340
2019-02-20T09:46:39.347Z,330
2019-02-20T09:47:39.345Z,330
2019-02-20T09:48:39.351Z,350
2019-02-20T09:49:39.323Z,365
2019-02-20T09:50:39.316Z,385
2019-02-20T09:51:39.309Z,405
2019-02-20T09:52:39.305Z,395
2019-02-20T09:53:39.300Z,380
2019-02-20T09:54:39.291Z,375
2019-02-20T09:55:39.282Z,365
2019-02-20T09:56:39.272Z,365
2019-02-20T09:57:39.279Z,380
2019-02-20T09:58:39.271Z,385
2019-02-20T09:59:39.283Z,380
2019-02-20T10:00:39.497Z,375
2019-02-20T10:01:39.333Z,370
2019-02-20T10:02:39.230Z,375
2019-02-20T10:03:39.237Z,370
2019-02-20T10:04:39.225Z,360
2019-02-20T10:05:39.209Z,345
2019-02-20T10:06:39.203Z,350
2019-02-20T10:07:39.208Z,340
2019-02-20T10:08:39.187Z,340
2019-02-20T10:09:39.188Z,335
2019-02-20T10:10:39.198Z,340
2019-02-20T10:11:39.172Z,350
2019-02-20T10:12:39.158Z,360
2019-02-20T10:13:39.279Z,370
2019-02-20T10:14:40.335Z,380
2019-02-20T10:15:39.151Z,370
2019-02-20T10:16:39.131Z,360
2019-02-20T10:17:39.132Z,360
2019-02-20T10:18:39.123Z,360
2019-02-20T10:19:39.132Z,360
2019-02-20T10:20:39.107Z,365
2019-02-20T10:21:39.110Z,375
2019-02-20T10:22:39.131Z,380
2019-02-20T10:23:39.082Z,390
2019-02-20T10:24:39.100Z,395
2019-02-20T10:25:38.837Z,385
2019-02-20T10:26:40.546Z,340
2019-02-20T10:27:39.055Z,345
2019-02-20T10:28:39.059Z,365
2019-02-20T10:29:39.052Z,380
2019-02-20T10:30:39.088Z,380
2019-02-20T10:31:39.323Z,380
2019-02-20T10:32:39.094Z,375
2019-02-20T10:33:39.021Z,375
2019-02-20T10:34:39.016Z,360
2019-02-20T10:35:39.018Z,350
2019-02-20T10:36:39.000Z,380
2019-02-20T10:37:39.001Z,380
2019-02-20T10:38:38.986Z,380
2019-02-20T10:39:38.979Z,380
2019-02-20T10:40:39.000Z,380
2019-02-20T10:41:38.968Z,380
2019-02-20T10:42:38.963Z,385
2019-02-20T10:43:38.959Z,380
2019-02-20T10:44:38.948Z,375
2019-02-20T10:45:38.946Z,375
2019-02-20T10:46:38.934Z,380
2019-02-20T10:47:38.958Z,400
2019-02-20T10:48:38.934Z,420
2019-02-20T10:49:38.928Z,415
2019-02-20T10:50:38.909Z,375
2019-02-20T10:51:38.921Z,335
2019-02-20T10:52:38.968Z,325
2019-02-20T10:53:38.894Z,315
2019-02-20T10:54:38.889Z,320
2019-02-20T10:55:38.889Z,325
2019-02-20T10:56:38.870Z,335
2019-02-20T10:57:38.872Z,335
2019-02-20T10:58:38.861Z,340
2019-02-20T10:59:38.852Z,340
2019-02-20T11:00:38.894Z,330
2019-02-20T11:01:38.845Z,325
2019-02-20T11:02:39.081Z,325
2019-02-20T11:03:38.837Z,330
2019-02-20T11:04:40.110Z,325
2019-02-20T11:05:40.465Z,320
2019-02-20T11:06:38.837Z,310
2019-02-20T11:07:38.805Z,305
2019-02-20T11:08:39.949Z,300
2019-02-20T11:09:39.050Z,300
2019-02-20T11:10:38.548Z,300
2019-02-20T11:11:38.780Z,295
2019-02-20T11:12:38.770Z,280
2019-02-20T11:13:38.766Z,270
2019-02-20T11:14:40.247Z,260
2019-02-20T11:15:38.748Z,255
2019-02-20T11:16:40.177Z,245
2019-02-20T11:17:39.718Z,235
2019-02-20T11:18:38.732Z,235
2019-02-20T11:19:38.724Z,240
2019-02-20T11:20:38.734Z,250
2019-02-20T11:21:38.715Z,260
2019-02-20T11:22:39.243Z,265
2019-02-20T11:23:38.701Z,265
2019-02-20T11:24:38.694Z,255
2019-02-20T11:25:40.447Z,245
2019-02-20T11:26:57.100Z,230
2019-02-20T11:27:39.507Z,225
2019-02-20T11:28:38.664Z,220
2019-02-20T11:29:38.661Z,220
2019-02-20T11:30:38.653Z,225
2019-02-20T11:31:38.639Z,225
2019-02-20T11:32:38.633Z,220
2019-02-20T11:33:40.246Z,215
2019-02-20T11:34:38.628Z,215
2019-02-20T11:35:38.618Z,210
2019-02-20T11:36:40.394Z,210
2019-02-20T11:37:38.605Z,205
2019-02-20T11:38:40.406Z,200
2019-02-20T11:39:46.927Z,195
2019-02-20T11:40:38.580Z,195
2019-02-20T11:41:38.570Z,195
2019-02-20T11:42:38.332Z,195
2019-02-20T11:43:38.565Z,200
2019-02-20T11:44:38.560Z,205
2019-02-20T11:45:38.543Z,210
2019-02-20T11:46:38.535Z,265
2019-02-20T11:47:38.532Z,300
2019-02-20T11:48:38.518Z,270
2019-02-20T11:49:38.519Z,230
2019-02-20T11:50:38.519Z,260
2019-02-20T11:51:38.502Z,315
2019-02-20T11:52:45.400Z,315
2019-02-20T11:53:46.402Z,330
2019-02-20T11:54:38.472Z,310
2019-02-20T11:55:38.461Z,285
2019-02-20T11:56:38.460Z,295
2019-02-20T11:57:38.454Z,310
2019-02-20T11:58:38.446Z,305
2019-02-20T11:59:38.434Z,310
2019-02-20T12:00:38.432Z,295
2019-02-20T12:01:38.424Z,275
2019-02-20T12:02:47.039Z,285
2019-02-20T12:03:38.405Z,295
2019-02-20T12:04:38.651Z,310
2019-02-20T12:05:38.391Z,350
2019-02-20T12:06:38.390Z,320
2019-02-20T12:07:38.377Z,315
2019-02-20T12:08:38.372Z,330
2019-02-20T12:09:38.117Z,320
2019-02-20T12:10:39.097Z,280
2019-02-20T12:11:38.345Z,250
2019-02-20T12:12:38.337Z,240
2019-02-20T12:13:38.338Z,240
2019-02-20T12:14:38.334Z,250
2019-02-20T12:15:38.555Z,265
2019-02-20T12:16:38.310Z,270
2019-02-20T12:17:38.304Z,290
2019-02-20T12:18:38.307Z,300
2019-02-20T12:19:39.382Z,295
2019-02-20T12:20:38.587Z,285
2019-02-20T12:21:38.280Z,295
2019-02-20T12:22:38.268Z,320
2019-02-20T12:23:46.121Z,315
2019-02-20T12:24:39.944Z,305
2019-02-20T12:25:38.253Z,300
2019-02-20T12:26:45.016Z,305
2019-02-20T12:27:40.195Z,310
2019-02-20T12:28:38.228Z,310
2019-02-20T12:29:39.317Z,310
2019-02-20T12:30:38.237Z,320
2019-02-20T12:31:38.221Z,330
2019-02-20T12:32:38.231Z,320
2019-02-20T12:33:38.201Z,315
2019-02-20T12:34:38.192Z,290
2019-02-20T12:35:38.193Z,265
2019-02-20T12:36:38.738Z,240
2019-02-20T12:37:38.175Z,220
2019-02-20T12:38:39.639Z,200
2019-02-20T12:39:38.158Z,205
2019-02-20T12:40:39.734Z,215
2019-02-20T12:41:40.304Z,205
2019-02-20T12:42:38.150Z,195
2019-02-20T12:43:38.130Z,195
2019-02-20T12:44:38.123Z,195
2019-02-20T12:45:38.137Z,195
2019-02-20T12:46:38.119Z,195
2019-02-20T12:47:38.112Z,185
2019-02-20T12:48:39.043Z,175
2019-02-20T12:49:38.092Z,175
2019-02-20T12:50:37.862Z,180
2019-02-20T12:51:38.083Z,185
2019-02-20T12:52:38.094Z,190
2019-02-20T12:53:38.067Z,195
2019-02-20T12:54:38.061Z,200
2019-02-20T12:55:38.051Z,215
2019-02-20T12:56:46.022Z,250
2019-02-20T12:57:38.037Z,295
2019-02-20T12:58:38.406Z,325
2019-02-20T12:59:39.226Z,330
2019-02-20T13:00:38.018Z,320
2019-02-20T13:01:38.007Z,290
2019-02-20T13:02:38.558Z,270
2019-02-20T13:03:37.992Z,255
2019-02-20T13:04:37.989Z,230
2019-02-20T13:05:37.986Z,205
2019-02-20T13:06:39.320Z,200
2019-02-20T13:07:40.244Z,215
2019-02-20T13:08:37.957Z,220
2019-02-20T13:09:37.948Z,205
2019-02-20T13:10:37.947Z,170
2019-02-20T13:11:37.687Z,140
2019-02-20T13:12:39.904Z,135
2019-02-20T13:13:37.926Z,165
2019-02-20T13:14:37.920Z,215
2019-02-20T13:15:37.909Z,225
2019-02-20T13:16:37.923Z,215
2019-02-20T13:17:37.943Z,205
2019-02-20T13:18:37.895Z,190
2019-02-20T13:19:37.886Z,180
2019-02-20T13:20:37.876Z,185
2019-02-20T13:21:37.872Z,190
2019-02-20T13:22:37.867Z,185
2019-02-20T13:23:37.858Z,180
2019-02-20T13:24:37.869Z,175
2019-02-20T13:25:38.530Z,170
2019-02-20T13:26:37.832Z,175
2019-02-20T13:27:37.829Z,195
2019-02-20T13:28:37.822Z,215
2019-02-20T13:29:37.816Z,235
2019-02-20T13:30:37.576Z,240
2019-02-20T13:31:37.795Z,240
2019-02-20T13:32:37.793Z,215
2019-02-20T13:33:37.778Z,225
2019-02-20T13:34:37.772Z,245
2019-02-20T13:35:37.775Z,265
2019-02-20T13:36:37.532Z,265
2019-02-20T13:37:37.797Z,260
2019-02-20T13:38:38.004Z,260
2019-02-20T13:39:37.794Z,255
2019-02-20T13:40:37.790Z,255
2019-02-20T13:41:37.773Z,250
2019-02-20T13:42:39.238Z,240
2019-02-20T13:43:37.773Z,210
2019-02-20T13:44:37.999Z,200
2019-02-20T13:45:38.412Z,195
2019-02-20T13:46:37.728Z,200
2019-02-20T13:47:37.737Z,210
2019-02-20T13:48:39.673Z,215
2019-02-20T13:49:37.711Z,220
2019-02-20T13:50:37.744Z,220
2019-02-20T13:51:37.726Z,220
2019-02-20T13:52:38.493Z,225
2019-02-20T13:53:46.187Z,225
2019-02-20T13:54:38.102Z,225
2019-02-20T13:55:44.037Z,230
2019-02-20T13:56:37.682Z,240
2019-02-20T13:57:37.673Z,245
2019-02-20T13:58:37.651Z,240
2019-02-20T13:59:37.909Z,240
2019-02-20T14:00:38.327Z,240
2019-02-20T14:01:37.605Z,215
2019-02-20T14:02:37.614Z,215
2019-02-20T14:03:37.590Z,210
2019-02-20T14:04:37.624Z,200
2019-02-20T14:05:37.592Z,190
2019-02-20T14:06:37.599Z,185
2019-02-20T14:07:39.534Z,190
2019-02-20T14:08:37.568Z,190
2019-02-20T14:09:37.812Z,190
2019-02-20T14:10:37.309Z,190
2019-02-20T14:11:37.547Z,180
2019-02-20T14:12:37.561Z,175
2019-02-20T14:13:37.533Z,165